sensor_id;sensor_type;location;lat;lon;timestamp;P1;durP1;ratioP1;P2;durP2;ratioP2
4810;SDS011;2419;51.276;6.472;2023-12-07T00:01:22;31.63;;;16.53;;
4810;SDS011;2419;51.276;6.472;2023-12-07T00:03:51;48.73;;;17.70;;
4810;SDS011;2419;51.276;6.472;2023-12-07T00:06:19;36.20;;;16.43;;
4810;SDS011;2419;51.276;6.472;2023-12-07T00:08:47;34.30;;;16.40;;
4810;SDS011;2419;51.276;6.472;2023-12-07T00:11:15;29.43;;;15.57;;
4810;SDS011;2419;51.276;6.472;2023-12-07T00:13:43;28.40;;;15.20;;
4810;SDS011;2419;51.276;6.472;2023-12-07T00:16:11;35.67;;;17.00;;
4810;SDS011;2419;51.276;6.472;2023-12-07T00:18:40;32.33;;;16.80;;
4810;SDS011;2419;51.276;6.472;2023-12-07T00:21:08;37.30;;;17.47;;
4810;SDS011;2419;51.276;6.472;2023-12-07T00:23:36;30.70;;;17.10;;
4810;SDS011;2419;51.276;6.472;2023-12-07T00:26:05;31.80;;;16.73;;
4810;SDS011;2419;51.276;6.472;2023-12-07T00:28:33;30.37;;;17.97;;
4810;SDS011;2419;51.276;6.472;2023-12-07T00:31:01;29.77;;;16.60;;
4810;SDS011;2419;51.276;6.472;2023-12-07T00:33:29;30.37;;;15.23;;
4810;SDS011;2419;51.276;6.472;2023-12-07T00:35:59;34.90;;;17.07;;
4810;SDS011;2419;51.276;6.472;2023-12-07T00:38:27;30.20;;;14.90;;
4810;SDS011;2419;51.276;6.472;2023-12-07T00:40:55;35.33;;;16.20;;
4810;SDS011;2419;51.276;6.472;2023-12-07T00:43:23;32.87;;;17.00;;
4810;SDS011;2419;51.276;6.472;2023-12-07T00:45:51;31.20;;;16.00;;
4810;SDS011;2419;51.276;6.472;2023-12-07T00:48:19;42.00;;;16.80;;
4810;SDS011;2419;51.276;6.472;2023-12-07T00:50:47;26.70;;;15.30;;
4810;SDS011;2419;51.276;6.472;2023-12-07T00:53:16;32.50;;;15.80;;
4810;SDS011;2419;51.276;6.472;2023-12-07T00:55:44;29.37;;;14.67;;
4810;SDS011;2419;51.276;6.472;2023-12-07T00:58:12;28.50;;;15.00;;
4810;SDS011;2419;51.276;6.472;2023-12-07T01:00:41;26.77;;;14.93;;
4810;SDS011;2419;51.276;6.472;2023-12-07T01:03:09;28.97;;;13.77;;
4810;SDS011;2419;51.276;6.472;2023-12-07T01:05:37;29.40;;;15.30;;
4810;SDS011;2419;51.276;6.472;2023-12-07T01:08:05;28.07;;;13.90;;
4810;SDS011;2419;51.276;6.472;2023-12-07T01:10:35;31.50;;;16.53;;
4810;SDS011;2419;51.276;6.472;2023-12-07T01:13:03;26.07;;;15.13;;
4810;SDS011;2419;51.276;6.472;2023-12-07T01:15:32;32.30;;;16.43;;
4810;SDS011;2419;51.276;6.472;2023-12-07T01:18:00;27.50;;;16.20;;
4810;SDS011;2419;51.276;6.472;2023-12-07T01:20:28;32.27;;;16.37;;
4810;SDS011;2419;51.276;6.472;2023-12-07T01:22:56;34.00;;;16.60;;
4810;SDS011;2419;51.276;6.472;2023-12-07T01:25:24;57.43;;;17.17;;
4810;SDS011;2419;51.276;6.472;2023-12-07T01:27:53;93.30;;;15.83;;
4810;SDS011;2419;51.276;6.472;2023-12-07T01:30:21;103.90;;;15.73;;
4810;SDS011;2419;51.276;6.472;2023-12-07T01:32:50;120.33;;;16.50;;
4810;SDS011;2419;51.276;6.472;2023-12-07T01:35:18;35.27;;;16.10;;
4810;SDS011;2419;51.276;6.472;2023-12-07T01:37:46;36.50;;;15.97;;
4810;SDS011;2419;51.276;6.472;2023-12-07T01:40:14;28.90;;;16.07;;
4810;SDS011;2419;51.276;6.472;2023-12-07T01:42:49;33.27;;;16.17;;
4810;SDS011;2419;51.276;6.472;2023-12-07T01:45:19;36.87;;;16.73;;
4810;SDS011;2419;51.276;6.472;2023-12-07T01:47:47;32.47;;;16.50;;
4810;SDS011;2419;51.276;6.472;2023-12-07T01:50:19;32.83;;;16.40;;
4810;SDS011;2419;51.276;6.472;2023-12-07T01:52:52;38.43;;;18.30;;
4810;SDS011;2419;51.276;6.472;2023-12-07T01:55:24;39.57;;;18.10;;
4810;SDS011;2419;51.276;6.472;2023-12-07T01:57:54;33.80;;;16.07;;
4810;SDS011;2419;51.276;6.472;2023-12-07T02:00:24;30.00;;;15.90;;
4810;SDS011;2419;51.276;6.472;2023-12-07T02:02:53;49.17;;;17.10;;
4810;SDS011;2419;51.276;6.472;2023-12-07T02:05:22;61.93;;;18.57;;
4810;SDS011;2419;51.276;6.472;2023-12-07T02:07:51;89.67;;;16.80;;
4810;SDS011;2419;51.276;6.472;2023-12-07T02:10:19;179.93;;;19.07;;
4810;SDS011;2419;51.276;6.472;2023-12-07T02:12:48;244.97;;;19.10;;
4810;SDS011;2419;51.276;6.472;2023-12-07T02:15:16;143.03;;;18.27;;
4810;SDS011;2419;51.276;6.472;2023-12-07T02:17:49;138.63;;;18.07;;
4810;SDS011;2419;51.276;6.472;2023-12-07T02:20:24;249.07;;;18.27;;
4810;SDS011;2419;51.276;6.472;2023-12-07T02:22:57;43.13;;;14.17;;
4810;SDS011;2419;51.276;6.472;2023-12-07T02:25:29;38.27;;;17.40;;
4810;SDS011;2419;51.276;6.472;2023-12-07T02:28:03;32.47;;;16.33;;
4810;SDS011;2419;51.276;6.472;2023-12-07T02:30:31;27.87;;;13.80;;
4810;SDS011;2419;51.276;6.472;2023-12-07T02:32:59;33.37;;;15.10;;
4810;SDS011;2419;51.276;6.472;2023-12-07T02:35:28;166.47;;;17.97;;
4810;SDS011;2419;51.276;6.472;2023-12-07T02:37:57;81.07;;;15.93;;
4810;SDS011;2419;51.276;6.472;2023-12-07T02:40:26;101.90;;;16.27;;
4810;SDS011;2419;51.276;6.472;2023-12-07T02:42:55;90.87;;;16.63;;
4810;SDS011;2419;51.276;6.472;2023-12-07T02:45:25;41.73;;;14.30;;
4810;SDS011;2419;51.276;6.472;2023-12-07T02:47:53;32.10;;;15.90;;
4810;SDS011;2419;51.276;6.472;2023-12-07T02:50:21;38.50;;;16.77;;
4810;SDS011;2419;51.276;6.472;2023-12-07T02:52:49;29.67;;;15.73;;
4810;SDS011;2419;51.276;6.472;2023-12-07T02:55:18;39.03;;;17.27;;
4810;SDS011;2419;51.276;6.472;2023-12-07T02:57:46;31.07;;;16.40;;
4810;SDS011;2419;51.276;6.472;2023-12-07T03:00:14;33.00;;;15.90;;
4810;SDS011;2419;51.276;6.472;2023-12-07T03:02:44;28.03;;;15.50;;
4810;SDS011;2419;51.276;6.472;2023-12-07T03:05:14;42.60;;;19.17;;
4810;SDS011;2419;51.276;6.472;2023-12-07T03:07:42;37.50;;;17.60;;
4810;SDS011;2419;51.276;6.472;2023-12-07T03:10:10;51.80;;;16.80;;
4810;SDS011;2419;51.276;6.472;2023-12-07T03:12:38;28.40;;;16.70;;
4810;SDS011;2419;51.276;6.472;2023-12-07T03:15:07;31.33;;;16.40;;
4810;SDS011;2419;51.276;6.472;2023-12-07T03:17:36;33.50;;;16.70;;
4810;SDS011;2419;51.276;6.472;2023-12-07T03:20:06;41.37;;;17.73;;
4810;SDS011;2419;51.276;6.472;2023-12-07T03:22:36;35.93;;;15.80;;
4810;SDS011;2419;51.276;6.472;2023-12-07T03:25:04;39.40;;;17.83;;
4810;SDS011;2419;51.276;6.472;2023-12-07T03:27:33;32.97;;;14.80;;
4810;SDS011;2419;51.276;6.472;2023-12-07T03:30:01;41.77;;;17.23;;
4810;SDS011;2419;51.276;6.472;2023-12-07T03:32:29;36.67;;;16.60;;
4810;SDS011;2419;51.276;6.472;2023-12-07T03:34:57;50.27;;;16.70;;
4810;SDS011;2419;51.276;6.472;2023-12-07T03:37:27;42.33;;;16.47;;
4810;SDS011;2419;51.276;6.472;2023-12-07T03:39:55;40.57;;;15.60;;
4810;SDS011;2419;51.276;6.472;2023-12-07T03:42:23;81.53;;;17.80;;
4810;SDS011;2419;51.276;6.472;2023-12-07T03:45:11;63.43;;;18.00;;
4810;SDS011;2419;51.276;6.472;2023-12-07T03:47:39;60.23;;;17.83;;
4810;SDS011;2419;51.276;6.472;2023-12-07T03:50:07;39.37;;;17.30;;
4810;SDS011;2419;51.276;6.472;2023-12-07T03:52:37;53.27;;;16.43;;
4810;SDS011;2419;51.276;6.472;2023-12-07T03:55:05;47.97;;;16.67;;
4810;SDS011;2419;51.276;6.472;2023-12-07T03:57:34;58.83;;;18.13;;
4810;SDS011;2419;51.276;6.472;2023-12-07T04:00:02;52.07;;;17.10;;
4810;SDS011;2419;51.276;6.472;2023-12-07T04:02:34;43.53;;;16.97;;
4810;SDS011;2419;51.276;6.472;2023-12-07T04:05:01;36.90;;;16.73;;
4810;SDS011;2419;51.276;6.472;2023-12-07T04:07:30;48.37;;;20.10;;
4810;SDS011;2419;51.276;6.472;2023-12-07T04:09:59;46.57;;;19.47;;
4810;SDS011;2419;51.276;6.472;2023-12-07T04:12:27;38.87;;;15.03;;
4810;SDS011;2419;51.276;6.472;2023-12-07T04:14:56;34.27;;;15.80;;
4810;SDS011;2419;51.276;6.472;2023-12-07T04:17:24;41.23;;;16.67;;
4810;SDS011;2419;51.276;6.472;2023-12-07T04:19:52;43.87;;;17.37;;
4810;SDS011;2419;51.276;6.472;2023-12-07T04:22:20;36.13;;;17.07;;
4810;SDS011;2419;51.276;6.472;2023-12-07T04:24:48;40.10;;;16.97;;
4810;SDS011;2419;51.276;6.472;2023-12-07T04:27:18;45.23;;;17.20;;
4810;SDS011;2419;51.276;6.472;2023-12-07T04:29:46;51.77;;;15.30;;
4810;SDS011;2419;51.276;6.472;2023-12-07T04:32:15;54.77;;;16.77;;
4810;SDS011;2419;51.276;6.472;2023-12-07T04:34:42;49.50;;;16.70;;
4810;SDS011;2419;51.276;6.472;2023-12-07T04:37:11;33.17;;;15.37;;
4810;SDS011;2419;51.276;6.472;2023-12-07T04:39:39;44.37;;;15.77;;
4810;SDS011;2419;51.276;6.472;2023-12-07T04:42:07;43.97;;;14.90;;
4810;SDS011;2419;51.276;6.472;2023-12-07T04:44:36;54.70;;;16.90;;
4810;SDS011;2419;51.276;6.472;2023-12-07T04:47:04;64.43;;;16.67;;
4810;SDS011;2419;51.276;6.472;2023-12-07T04:49:33;38.73;;;16.00;;
4810;SDS011;2419;51.276;6.472;2023-12-07T04:52:01;34.60;;;14.13;;
4810;SDS011;2419;51.276;6.472;2023-12-07T04:54:29;52.57;;;13.67;;
4810;SDS011;2419;51.276;6.472;2023-12-07T04:56:57;44.33;;;15.47;;
4810;SDS011;2419;51.276;6.472;2023-12-07T04:59:25;37.60;;;14.23;;
4810;SDS011;2419;51.276;6.472;2023-12-07T05:01:55;30.03;;;13.00;;
4810;SDS011;2419;51.276;6.472;2023-12-07T05:04:23;34.07;;;13.87;;
4810;SDS011;2419;51.276;6.472;2023-12-07T05:06:51;34.40;;;15.40;;
4810;SDS011;2419;51.276;6.472;2023-12-07T05:09:19;32.30;;;13.97;;
4810;SDS011;2419;51.276;6.472;2023-12-07T05:11:48;34.87;;;15.20;;
4810;SDS011;2419;51.276;6.472;2023-12-07T05:14:16;34.40;;;14.70;;
4810;SDS011;2419;51.276;6.472;2023-12-07T05:16:44;40.43;;;15.23;;
4810;SDS011;2419;51.276;6.472;2023-12-07T05:19:16;58.83;;;15.60;;
4810;SDS011;2419;51.276;6.472;2023-12-07T05:21:44;55.67;;;15.40;;
4810;SDS011;2419;51.276;6.472;2023-12-07T05:24:13;47.20;;;14.40;;
4810;SDS011;2419;51.276;6.472;2023-12-07T05:26:41;50.23;;;14.83;;
4810;SDS011;2419;51.276;6.472;2023-12-07T05:29:10;32.80;;;14.07;;
4810;SDS011;2419;51.276;6.472;2023-12-07T05:31:39;33.77;;;14.47;;
4810;SDS011;2419;51.276;6.472;2023-12-07T05:34:07;47.87;;;13.60;;
4810;SDS011;2419;51.276;6.472;2023-12-07T05:36:37;43.63;;;15.10;;
4810;SDS011;2419;51.276;6.472;2023-12-07T05:39:05;36.63;;;15.00;;
4810;SDS011;2419;51.276;6.472;2023-12-07T05:41:33;34.27;;;14.00;;
4810;SDS011;2419;51.276;6.472;2023-12-07T05:44:01;56.87;;;16.03;;
4810;SDS011;2419;51.276;6.472;2023-12-07T05:46:30;60.53;;;15.70;;
4810;SDS011;2419;51.276;6.472;2023-12-07T05:48:59;42.80;;;15.07;;
4810;SDS011;2419;51.276;6.472;2023-12-07T05:51:27;45.93;;;15.90;;
4810;SDS011;2419;51.276;6.472;2023-12-07T05:53:56;47.90;;;14.07;;
4810;SDS011;2419;51.276;6.472;2023-12-07T05:56:24;39.07;;;15.63;;
4810;SDS011;2419;51.276;6.472;2023-12-07T05:58:52;43.17;;;14.97;;
4810;SDS011;2419;51.276;6.472;2023-12-07T06:01:20;58.50;;;15.03;;
4810;SDS011;2419;51.276;6.472;2023-12-07T06:03:48;84.10;;;16.90;;
4810;SDS011;2419;51.276;6.472;2023-12-07T06:06:16;62.07;;;15.97;;
4810;SDS011;2419;51.276;6.472;2023-12-07T06:08:45;54.17;;;15.97;;
4810;SDS011;2419;51.276;6.472;2023-12-07T06:11:14;40.13;;;16.10;;
4810;SDS011;2419;51.276;6.472;2023-12-07T06:13:42;53.07;;;15.80;;
4810;SDS011;2419;51.276;6.472;2023-12-07T06:16:13;33.60;;;15.50;;
4810;SDS011;2419;51.276;6.472;2023-12-07T06:18:43;42.13;;;16.27;;
4810;SDS011;2419;51.276;6.472;2023-12-07T06:21:13;56.73;;;18.40;;
4810;SDS011;2419;51.276;6.472;2023-12-07T06:23:41;43.73;;;16.83;;
4810;SDS011;2419;51.276;6.472;2023-12-07T06:26:13;57.67;;;18.87;;
4810;SDS011;2419;51.276;6.472;2023-12-07T06:28:42;48.90;;;16.50;;
4810;SDS011;2419;51.276;6.472;2023-12-07T06:31:11;48.00;;;16.53;;
4810;SDS011;2419;51.276;6.472;2023-12-07T06:33:41;52.43;;;19.07;;
4810;SDS011;2419;51.276;6.472;2023-12-07T06:36:09;41.57;;;16.27;;
4810;SDS011;2419;51.276;6.472;2023-12-07T06:38:37;66.57;;;15.30;;
4810;SDS011;2419;51.276;6.472;2023-12-07T06:41:05;49.33;;;17.17;;
4810;SDS011;2419;51.276;6.472;2023-12-07T06:43:35;60.33;;;16.90;;
4810;SDS011;2419;51.276;6.472;2023-12-07T06:46:03;81.63;;;17.40;;
4810;SDS011;2419;51.276;6.472;2023-12-07T06:48:31;64.70;;;15.00;;
4810;SDS011;2419;51.276;6.472;2023-12-07T06:50:59;98.43;;;17.00;;
4810;SDS011;2419;51.276;6.472;2023-12-07T06:53:27;62.80;;;14.60;;
4810;SDS011;2419;51.276;6.472;2023-12-07T06:55:57;85.80;;;16.20;;
4810;SDS011;2419;51.276;6.472;2023-12-07T06:58:25;49.97;;;16.13;;
4810;SDS011;2419;51.276;6.472;2023-12-07T07:00:55;63.73;;;18.03;;
4810;SDS011;2419;51.276;6.472;2023-12-07T07:03:24;70.07;;;15.23;;
4810;SDS011;2419;51.276;6.472;2023-12-07T07:05:54;68.97;;;15.73;;
4810;SDS011;2419;51.276;6.472;2023-12-07T07:08:22;55.83;;;13.50;;
4810;SDS011;2419;51.276;6.472;2023-12-07T07:10:50;56.90;;;14.50;;
4810;SDS011;2419;51.276;6.472;2023-12-07T07:13:18;72.67;;;15.77;;
4810;SDS011;2419;51.276;6.472;2023-12-07T07:15:47;79.60;;;17.10;;
4810;SDS011;2419;51.276;6.472;2023-12-07T07:18:16;55.53;;;16.43;;
4810;SDS011;2419;51.276;6.472;2023-12-07T07:20:45;68.27;;;16.20;;
4810;SDS011;2419;51.276;6.472;2023-12-07T07:23:13;63.80;;;16.30;;
4810;SDS011;2419;51.276;6.472;2023-12-07T07:25:41;50.93;;;17.70;;
4810;SDS011;2419;51.276;6.472;2023-12-07T07:28:09;48.53;;;17.30;;
4810;SDS011;2419;51.276;6.472;2023-12-07T07:30:37;72.37;;;16.87;;
4810;SDS011;2419;51.276;6.472;2023-12-07T07:33:05;80.60;;;17.27;;
4810;SDS011;2419;51.276;6.472;2023-12-07T07:35:35;75.10;;;18.77;;
4810;SDS011;2419;51.276;6.472;2023-12-07T07:38:03;82.50;;;18.33;;
4810;SDS011;2419;51.276;6.472;2023-12-07T07:40:31;55.63;;;17.97;;
4810;SDS011;2419;51.276;6.472;2023-12-07T07:42:59;55.83;;;17.90;;
4810;SDS011;2419;51.276;6.472;2023-12-07T07:45:27;62.03;;;18.27;;
4810;SDS011;2419;51.276;6.472;2023-12-07T07:47:55;45.63;;;18.70;;
4810;SDS011;2419;51.276;6.472;2023-12-07T07:50:24;68.37;;;16.00;;
4810;SDS011;2419;51.276;6.472;2023-12-07T07:52:53;68.10;;;16.80;;
4810;SDS011;2419;51.276;6.472;2023-12-07T07:55:22;75.63;;;17.60;;
4810;SDS011;2419;51.276;6.472;2023-12-07T07:57:50;93.90;;;19.63;;
4810;SDS011;2419;51.276;6.472;2023-12-07T08:00:18;73.27;;;17.93;;
4810;SDS011;2419;51.276;6.472;2023-12-07T08:02:47;58.23;;;19.53;;
4810;SDS011;2419;51.276;6.472;2023-12-07T08:05:15;58.97;;;19.80;;
4810;SDS011;2419;51.276;6.472;2023-12-07T08:07:43;92.70;;;16.43;;
4810;SDS011;2419;51.276;6.472;2023-12-07T08:10:13;57.80;;;17.67;;
4810;SDS011;2419;51.276;6.472;2023-12-07T08:12:41;112.50;;;18.33;;
4810;SDS011;2419;51.276;6.472;2023-12-07T08:15:09;70.83;;;18.73;;
4810;SDS011;2419;51.276;6.472;2023-12-07T08:17:38;75.37;;;18.10;;
4810;SDS011;2419;51.276;6.472;2023-12-07T08:20:07;142.25;;;25.13;;
4810;SDS011;2419;51.276;6.472;2023-12-07T08:22:36;117.70;;;22.60;;
4810;SDS011;2419;51.276;6.472;2023-12-07T08:25:05;113.00;;;20.73;;
4810;SDS011;2419;51.276;6.472;2023-12-07T08:27:39;86.87;;;19.13;;
4810;SDS011;2419;51.276;6.472;2023-12-07T08:30:07;142.83;;;17.40;;
4810;SDS011;2419;51.276;6.472;2023-12-07T08:32:36;67.83;;;16.67;;
4810;SDS011;2419;51.276;6.472;2023-12-07T08:35:05;60.73;;;17.50;;
4810;SDS011;2419;51.276;6.472;2023-12-07T08:37:33;60.13;;;14.40;;
4810;SDS011;2419;51.276;6.472;2023-12-07T08:40:04;59.73;;;15.20;;
4810;SDS011;2419;51.276;6.472;2023-12-07T08:42:33;84.93;;;17.97;;
4810;SDS011;2419;51.276;6.472;2023-12-07T08:45:03;93.93;;;17.70;;
4810;SDS011;2419;51.276;6.472;2023-12-07T08:47:31;73.23;;;15.93;;
4810;SDS011;2419;51.276;6.472;2023-12-07T08:50:00;40.90;;;12.87;;
4810;SDS011;2419;51.276;6.472;2023-12-07T08:52:29;38.23;;;14.07;;
4810;SDS011;2419;51.276;6.472;2023-12-07T08:55:10;31.43;;;12.60;;
4810;SDS011;2419;51.276;6.472;2023-12-07T08:57:42;48.30;;;12.97;;
4810;SDS011;2419;51.276;6.472;2023-12-07T09:00:11;95.63;;;13.67;;
4810;SDS011;2419;51.276;6.472;2023-12-07T09:02:40;54.17;;;15.27;;
4810;SDS011;2419;51.276;6.472;2023-12-07T09:05:13;57.87;;;15.20;;
4810;SDS011;2419;51.276;6.472;2023-12-07T09:07:42;48.37;;;14.40;;
4810;SDS011;2419;51.276;6.472;2023-12-07T09:10:10;32.17;;;12.20;;
4810;SDS011;2419;51.276;6.472;2023-12-07T09:12:38;131.00;;;14.10;;
4810;SDS011;2419;51.276;6.472;2023-12-07T09:15:07;48.80;;;14.17;;
4810;SDS011;2419;51.276;6.472;2023-12-07T09:17:39;35.93;;;13.60;;
4810;SDS011;2419;51.276;6.472;2023-12-07T09:20:09;138.23;;;15.73;;
4810;SDS011;2419;51.276;6.472;2023-12-07T09:22:41;53.47;;;14.57;;
4810;SDS011;2419;51.276;6.472;2023-12-07T09:25:10;30.47;;;14.57;;
4810;SDS011;2419;51.276;6.472;2023-12-07T09:27:39;41.63;;;15.13;;
4810;SDS011;2419;51.276;6.472;2023-12-07T09:30:08;34.67;;;16.03;;
4810;SDS011;2419;51.276;6.472;2023-12-07T09:32:40;29.17;;;14.57;;
4810;SDS011;2419;51.276;6.472;2023-12-07T09:35:11;32.83;;;14.77;;
4810;SDS011;2419;51.276;6.472;2023-12-07T09:37:42;32.70;;;15.83;;
4810;SDS011;2419;51.276;6.472;2023-12-07T09:40:14;35.53;;;16.10;;
4810;SDS011;2419;51.276;6.472;2023-12-07T09:42:44;40.90;;;16.03;;
4810;SDS011;2419;51.276;6.472;2023-12-07T09:45:12;37.20;;;16.63;;
4810;SDS011;2419;51.276;6.472;2023-12-07T09:47:44;37.47;;;18.60;;
4810;SDS011;2419;51.276;6.472;2023-12-07T09:50:15;37.43;;;19.77;;
4810;SDS011;2419;51.276;6.472;2023-12-07T09:52:47;30.00;;;17.47;;
4810;SDS011;2419;51.276;6.472;2023-12-07T09:55:29;31.90;;;17.37;;
4810;SDS011;2419;51.276;6.472;2023-12-07T09:57:58;25.50;;;14.47;;
4810;SDS011;2419;51.276;6.472;2023-12-07T10:00:26;24.57;;;14.87;;
4810;SDS011;2419;51.276;6.472;2023-12-07T10:02:56;26.23;;;14.90;;
4810;SDS011;2419;51.276;6.472;2023-12-07T10:05:24;20.50;;;11.73;;
4810;SDS011;2419;51.276;6.472;2023-12-07T10:07:53;19.03;;;11.70;;
4810;SDS011;2419;51.276;6.472;2023-12-07T10:10:21;12.70;;;9.20;;
4810;SDS011;2419;51.276;6.472;2023-12-07T10:12:51;12.63;;;8.30;;
4810;SDS011;2419;51.276;6.472;2023-12-07T10:15:20;10.60;;;7.63;;
4810;SDS011;2419;51.276;6.472;2023-12-07T10:17:49;10.83;;;7.13;;
4810;SDS011;2419;51.276;6.472;2023-12-07T10:20:21;10.57;;;6.90;;
4810;SDS011;2419;51.276;6.472;2023-12-07T10:23:00;10.87;;;7.50;;
4810;SDS011;2419;51.276;6.472;2023-12-07T10:25:30;13.63;;;7.77;;
4810;SDS011;2419;51.276;6.472;2023-12-07T10:27:58;13.27;;;7.60;;
4810;SDS011;2419;51.276;6.472;2023-12-07T10:30:28;11.07;;;7.00;;
4810;SDS011;2419;51.276;6.472;2023-12-07T10:32:56;10.10;;;6.60;;
4810;SDS011;2419;51.276;6.472;2023-12-07T10:35:25;10.93;;;7.00;;
4810;SDS011;2419;51.276;6.472;2023-12-07T10:37:55;13.13;;;7.93;;
4810;SDS011;2419;51.276;6.472;2023-12-07T10:40:24;11.20;;;7.33;;
4810;SDS011;2419;51.276;6.472;2023-12-07T10:42:53;10.27;;;6.90;;
4810;SDS011;2419;51.276;6.472;2023-12-07T10:45:25;16.83;;;7.70;;
4810;SDS011;2419;51.276;6.472;2023-12-07T10:47:57;13.27;;;7.80;;
4810;SDS011;2419;51.276;6.472;2023-12-07T10:50:35;14.10;;;8.07;;
4810;SDS011;2419;51.276;6.472;2023-12-07T10:53:09;10.77;;;7.27;;
4810;SDS011;2419;51.276;6.472;2023-12-07T10:55:40;13.17;;;8.03;;
4810;SDS011;2419;51.276;6.472;2023-12-07T11:00:43;15.13;;;7.87;;
4810;SDS011;2419;51.276;6.472;2023-12-07T11:03:15;16.97;;;8.63;;
4810;SDS011;2419;51.276;6.472;2023-12-07T11:05:47;15.50;;;8.20;;
4810;SDS011;2419;51.276;6.472;2023-12-07T11:08:17;13.40;;;7.40;;
4810;SDS011;2419;51.276;6.472;2023-12-07T11:10:54;15.93;;;8.67;;
4810;SDS011;2419;51.276;6.472;2023-12-07T11:13:30;13.47;;;7.10;;
4810;SDS011;2419;51.276;6.472;2023-12-07T11:16:03;21.43;;;8.80;;
4810;SDS011;2419;51.276;6.472;2023-12-07T11:18:31;15.20;;;8.90;;
4810;SDS011;2419;51.276;6.472;2023-12-07T11:21:01;13.30;;;8.00;;
4810;SDS011;2419;51.276;6.472;2023-12-07T11:23:29;14.00;;;6.17;;
4810;SDS011;2419;51.276;6.472;2023-12-07T11:25:59;11.60;;;6.87;;
4810;SDS011;2419;51.276;6.472;2023-12-07T11:28:34;13.97;;;7.50;;
4810;SDS011;2419;51.276;6.472;2023-12-07T11:31:03;14.10;;;7.43;;
4810;SDS011;2419;51.276;6.472;2023-12-07T11:33:37;10.13;;;6.37;;
4810;SDS011;2419;51.276;6.472;2023-12-07T11:36:08;22.53;;;7.77;;
4810;SDS011;2419;51.276;6.472;2023-12-07T11:38:37;12.97;;;7.67;;
4810;SDS011;2419;51.276;6.472;2023-12-07T11:41:05;12.60;;;7.73;;
4810;SDS011;2419;51.276;6.472;2023-12-07T11:43:40;19.17;;;7.63;;
4810;SDS011;2419;51.276;6.472;2023-12-07T11:46:13;16.17;;;8.10;;
4810;SDS011;2419;51.276;6.472;2023-12-07T11:48:47;15.27;;;7.27;;
4810;SDS011;2419;51.276;6.472;2023-12-07T11:51:18;13.57;;;7.23;;
4810;SDS011;2419;51.276;6.472;2023-12-07T11:53:46;15.53;;;5.63;;
4810;SDS011;2419;51.276;6.472;2023-12-07T11:56:16;13.50;;;6.50;;
4810;SDS011;2419;51.276;6.472;2023-12-07T11:58:47;11.03;;;6.50;;
4810;SDS011;2419;51.276;6.472;2023-12-07T12:01:17;12.80;;;6.97;;
4810;SDS011;2419;51.276;6.472;2023-12-07T12:03:45;12.10;;;7.77;;
4810;SDS011;2419;51.276;6.472;2023-12-07T12:06:13;13.63;;;7.13;;
4810;SDS011;2419;51.276;6.472;2023-12-07T12:08:42;13.70;;;7.33;;
4810;SDS011;2419;51.276;6.472;2023-12-07T12:11:11;12.80;;;8.40;;
4810;SDS011;2419;51.276;6.472;2023-12-07T12:13:39;15.73;;;7.47;;
4810;SDS011;2419;51.276;6.472;2023-12-07T12:16:08;13.57;;;8.00;;
4810;SDS011;2419;51.276;6.472;2023-12-07T12:18:36;15.37;;;8.07;;
4810;SDS011;2419;51.276;6.472;2023-12-07T12:21:06;15.17;;;7.40;;
4810;SDS011;2419;51.276;6.472;2023-12-07T12:23:35;12.50;;;7.73;;
4810;SDS011;2419;51.276;6.472;2023-12-07T12:26:05;9.70;;;6.20;;
4810;SDS011;2419;51.276;6.472;2023-12-07T12:28:34;14.33;;;8.23;;
4810;SDS011;2419;51.276;6.472;2023-12-07T12:31:09;10.77;;;5.70;;
4810;SDS011;2419;51.276;6.472;2023-12-07T12:33:38;19.93;;;8.10;;
4810;SDS011;2419;51.276;6.472;2023-12-07T12:36:07;14.03;;;7.80;;
4810;SDS011;2419;51.276;6.472;2023-12-07T12:38:37;13.53;;;7.90;;
4810;SDS011;2419;51.276;6.472;2023-12-07T12:41:11;13.17;;;7.87;;
4810;SDS011;2419;51.276;6.472;2023-12-07T12:43:40;14.93;;;8.87;;
4810;SDS011;2419;51.276;6.472;2023-12-07T12:46:09;13.13;;;7.90;;
4810;SDS011;2419;51.276;6.472;2023-12-07T12:48:51;14.80;;;8.87;;
4810;SDS011;2419;51.276;6.472;2023-12-07T12:51:22;16.00;;;8.80;;
4810;SDS011;2419;51.276;6.472;2023-12-07T12:53:53;13.00;;;7.37;;
4810;SDS011;2419;51.276;6.472;2023-12-07T12:56:23;12.17;;;7.50;;
4810;SDS011;2419;51.276;6.472;2023-12-07T12:58:52;12.87;;;7.20;;
4810;SDS011;2419;51.276;6.472;2023-12-07T13:01:27;11.30;;;7.70;;
4810;SDS011;2419;51.276;6.472;2023-12-07T13:03:56;12.50;;;7.87;;
4810;SDS011;2419;51.276;6.472;2023-12-07T13:06:24;11.70;;;6.40;;
4810;SDS011;2419;51.276;6.472;2023-12-07T13:08:52;13.37;;;8.00;;
4810;SDS011;2419;51.276;6.472;2023-12-07T13:11:20;14.10;;;8.03;;
4810;SDS011;2419;51.276;6.472;2023-12-07T13:13:50;12.53;;;6.87;;
4810;SDS011;2419;51.276;6.472;2023-12-07T13:16:18;18.70;;;8.30;;
4810;SDS011;2419;51.276;6.472;2023-12-07T13:18:47;17.60;;;8.20;;
4810;SDS011;2419;51.276;6.472;2023-12-07T13:21:15;16.33;;;7.00;;
4810;SDS011;2419;51.276;6.472;2023-12-07T13:23:43;21.70;;;7.17;;
4810;SDS011;2419;51.276;6.472;2023-12-07T13:26:13;13.47;;;8.60;;
4810;SDS011;2419;51.276;6.472;2023-12-07T13:28:41;12.90;;;8.17;;
4810;SDS011;2419;51.276;6.472;2023-12-07T13:31:11;9.80;;;6.83;;
4810;SDS011;2419;51.276;6.472;2023-12-07T13:33:39;10.33;;;6.50;;
4810;SDS011;2419;51.276;6.472;2023-12-07T13:36:21;11.97;;;6.90;;
4810;SDS011;2419;51.276;6.472;2023-12-07T13:38:52;9.83;;;6.00;;
4810;SDS011;2419;51.276;6.472;2023-12-07T13:41:20;10.90;;;6.73;;
4810;SDS011;2419;51.276;6.472;2023-12-07T13:43:48;11.80;;;6.10;;
4810;SDS011;2419;51.276;6.472;2023-12-07T13:46:18;16.03;;;7.03;;
4810;SDS011;2419;51.276;6.472;2023-12-07T13:48:46;13.40;;;8.03;;
4810;SDS011;2419;51.276;6.472;2023-12-07T13:51:15;10.07;;;6.27;;
4810;SDS011;2419;51.276;6.472;2023-12-07T13:53:43;14.10;;;6.23;;
4810;SDS011;2419;51.276;6.472;2023-12-07T13:56:11;12.13;;;6.67;;
4810;SDS011;2419;51.276;6.472;2023-12-07T13:58:39;8.20;;;6.10;;
4810;SDS011;2419;51.276;6.472;2023-12-07T14:01:07;11.53;;;7.10;;
4810;SDS011;2419;51.276;6.472;2023-12-07T14:03:37;13.57;;;7.80;;
4810;SDS011;2419;51.276;6.472;2023-12-07T14:06:05;12.23;;;6.63;;
4810;SDS011;2419;51.276;6.472;2023-12-07T14:08:46;10.17;;;6.57;;
4810;SDS011;2419;51.276;6.472;2023-12-07T14:11:15;10.27;;;6.07;;
4810;SDS011;2419;51.276;6.472;2023-12-07T14:13:43;11.83;;;7.17;;
4810;SDS011;2419;51.276;6.472;2023-12-07T14:16:12;14.17;;;7.77;;
4810;SDS011;2419;51.276;6.472;2023-12-07T14:18:53;12.10;;;6.90;;
4810;SDS011;2419;51.276;6.472;2023-12-07T14:21:40;12.73;;;7.50;;
4810;SDS011;2419;51.276;6.472;2023-12-07T14:24:21;9.67;;;5.87;;
4810;SDS011;2419;51.276;6.472;2023-12-07T14:26:50;12.27;;;5.90;;
4810;SDS011;2419;51.276;6.472;2023-12-07T14:29:18;11.97;;;7.10;;
4810;SDS011;2419;51.276;6.472;2023-12-07T14:31:53;10.97;;;6.93;;
4810;SDS011;2419;51.276;6.472;2023-12-07T14:34:22;9.83;;;6.17;;
4810;SDS011;2419;51.276;6.472;2023-12-07T14:37:01;12.70;;;7.00;;
4810;SDS011;2419;51.276;6.472;2023-12-07T14:39:33;10.57;;;6.90;;
4810;SDS011;2419;51.276;6.472;2023-12-07T14:42:01;14.43;;;7.63;;
4810;SDS011;2419;51.276;6.472;2023-12-07T14:44:31;11.53;;;7.27;;
4810;SDS011;2419;51.276;6.472;2023-12-07T14:46:59;12.40;;;7.33;;
4810;SDS011;2419;51.276;6.472;2023-12-07T14:49:28;16.70;;;7.27;;
4810;SDS011;2419;51.276;6.472;2023-12-07T14:51:56;12.87;;;6.40;;
4810;SDS011;2419;51.276;6.472;2023-12-07T14:54:26;11.90;;;7.60;;
4810;SDS011;2419;51.276;6.472;2023-12-07T14:56:56;14.80;;;7.43;;
4810;SDS011;2419;51.276;6.472;2023-12-07T14:59:24;13.27;;;7.37;;
4810;SDS011;2419;51.276;6.472;2023-12-07T15:01:53;16.30;;;7.90;;
4810;SDS011;2419;51.276;6.472;2023-12-07T15:04:21;9.27;;;5.47;;
4810;SDS011;2419;51.276;6.472;2023-12-07T15:07:00;18.93;;;7.60;;
4810;SDS011;2419;51.276;6.472;2023-12-07T15:09:30;14.43;;;7.53;;